Time;durP1;ratioP1;P1;durP2;ratioP2;P2;SDS_P1;SDS_P2;PMS_P1;PMS_P2;Temp;Humidity;BMP_temperature;BMP_pressure;BME280_temperature;BME280_humidity;BME280_pressure;Samples;Min_cycle;Max_cycle;Signal;HPM_P1;HPM_P2
2023/05/10 00:01:38;;;;;;;9.65;8.25;;;14.30;99.90;;;;;;4998802;28;20053;-72
2023/05/10 00:04:04;;;;;;;9.80;8.80;;;14.20;99.90;;;;;;5016685;28;20115;-72
2023/05/10 00:06:30;;;;;;;8.80;7.40;;;14.10;99.90;;;;;;5015856;28;20058;-73
2023/05/10 00:08:55;;;;;;;9.30;6.85;;;14.10;99.90;;;;;;5015972;28;20108;-73
2023/05/10 00:11:21;;;;;;;8.85;6.40;;;14.00;99.90;;;;;;5015862;28;20038;-73
2023/05/10 00:13:47;;;;;;;8.20;5.90;;;13.90;99.90;;;;;;5015736;28;20037;-74
2023/05/10 00:16:13;;;;;;;8.57;6.53;;;13.90;99.90;;;;;;5015746;28;20050;-74
2023/05/10 00:18:39;;;;;;;8.55;6.90;;;13.90;99.90;;;;;;4998466;28;20056;-73
2023/05/10 00:21:06;;;;;;;8.35;7.45;;;13.80;99.90;;;;;;5016228;28;20084;-73
2023/05/10 00:23:31;;;;;;;8.75;6.90;;;13.80;99.90;;;;;;5016085;28;20057;-73
2023/05/10 00:25:57;;;;;;;6.80;6.10;;;13.80;99.90;;;;;;4998929;28;20418;-74
2023/05/10 00:28:23;;;;;;;8.27;6.60;;;13.70;99.90;;;;;;4998075;28;20042;-73
2023/05/10 00:30:49;;;;;;;9.73;7.93;;;13.70;99.90;;;;;;5016012;28;20369;-73
2023/05/10 00:33:14;;;;;;;9.45;8.27;;;13.70;99.90;;;;;;5016104;28;20546;-73
2023/05/10 00:35:40;;;;;;;8.57;7.68;;;13.70;99.90;;;;;;5015216;28;20050;-73
2023/05/10 00:38:06;;;;;;;11.13;7.63;;;13.70;99.90;;;;;;5015581;28;20054;-73
2023/05/10 00:40:32;;;;;;;10.18;8.00;;;13.70;99.90;;;;;;4997154;28;20057;-73
2023/05/10 00:43:00;;;;;;;12.20;8.10;;;13.70;99.90;;;;;;5015651;28;20125;-73
2023/05/10 00:45:26;;;;;;;11.30;8.85;;;13.70;99.90;;;;;;4982134;28;20058;-73
2023/05/10 00:47:54;;;;;;;10.07;7.95;;;13.80;99.90;;;;;;5015291;28;20050;-73
2023/05/10 00:50:24;;;;;;;10.30;9.20;;;13.80;99.90;;;;;;5015557;28;20042;-73
2023/05/10 00:52:50;;;;;;;11.02;8.73;;;13.70;99.90;;;;;;4997623;28;20045;-73
2023/05/10 00:55:16;;;;;;;9.77;8.68;;;13.80;99.90;;;;;;5015970;28;20159;-73
2023/05/10 00:57:42;;;;;;;8.57;7.75;;;13.70;99.90;;;;;;4997878;28;20451;-74
2023/05/10 01:00:09;;;;;;;8.32;7.30;;;13.80;99.90;;;;;;4998052;28;20092;-73
2023/05/10 01:02:35;;;;;;;9.55;7.40;;;13.70;99.90;;;;;;5015263;28;20060;-73
2023/05/10 01:05:03;;;;;;;9.23;7.40;;;13.70;99.90;;;;;;5015071;28;20136;-73
2023/05/10 01:07:29;;;;;;;8.80;7.45;;;13.70;99.90;;;;;;4998093;28;20175;-73
2023/05/10 01:09:55;;;;;;;8.52;6.63;;;13.70;99.90;;;;;;4997116;28;20042;-74
2023/05/10 01:12:21;;;;;;;9.13;7.78;;;13.70;99.90;;;;;;5015169;28;20100;-73
2023/05/10 01:14:48;;;;;;;8.18;7.40;;;13.60;99.90;;;;;;5015053;28;20085;-73
2023/05/10 01:17:14;;;;;;;9.45;7.47;;;13.70;99.90;;;;;;5014679;28;20049;-74
2023/05/10 01:19:40;;;;;;;8.90;7.97;;;13.70;99.90;;;;;;4997508;28;20188;-73
2023/05/10 01:22:21;;;;;;;7.55;6.82;;;13.70;99.90;;;;;;5014956;28;20125;-73
2023/05/10 01:24:52;;;;;;;7.88;6.82;;;13.70;99.90;;;;;;5014617;28;20041;-74
2023/05/10 01:27:44;;;;;;;9.80;7.10;;;12.80;99.90;;;;;;5014857;28;20053;-73
2023/05/10 01:30:21;;;;;;;8.57;7.25;;;13.70;99.90;;;;;;5014372;28;20042;-73
2023/05/10 01:33:08;;;;;;;8.13;6.85;;;13.60;99.90;;;;;;5014309;28;20160;-73
2023/05/10 01:35:42;;;;;;;8.30;7.25;;;13.60;99.90;;;;;;5014286;28;20054;-73
2023/05/10 01:38:32;;;;;;;8.55;7.70;;;13.60;99.90;;;;;;4996949;28;20050;-73
2023/05/10 01:41:28;;;;;;;11.15;8.43;;;13.70;99.90;;;;;;5014501;28;20104;-72
2023/05/10 01:44:03;;;;;;;10.27;8.40;;;13.70;99.90;;;;;;4996702;28;20053;-73
2023/05/10 01:46:40;;;;;;;8.93;6.57;;;13.70;99.90;;;;;;5013906;28;20100;-74
2023/05/10 01:49:20;;;;;;;8.95;7.75;;;13.70;99.90;;;;;;4997053;28;20050;-72
2023/05/10 01:51:51;;;;;;;8.10;6.63;;;13.70;99.90;;;;;;5013213;28;20450;-73
2023/05/10 01:54:19;;;;;;;10.73;8.98;;;13.70;99.90;;;;;;5013907;28;20042;-74
2023/05/10 01:56:50;;;;;;;9.95;8.25;;;13.60;99.90;;;;;;5013939;28;20485;-73
2023/05/10 01:59:19;;;;;;;8.75;6.90;;;13.70;99.90;;;;;;5014532;28;20045;-75
2023/05/10 02:01:46;;;;;;;9.02;7.65;;;13.60;99.90;;;;;;5013850;28;20050;-74
2023/05/10 02:04:16;;;;;;;9.07;6.93;;;13.60;99.90;;;;;;5013819;28;20056;-73
2023/05/10 02:06:44;;;;;;;9.50;6.85;;;13.50;99.90;;;;;;5013746;28;20557;-73
2023/05/10 02:09:11;;;;;;;8.00;6.53;;;13.50;99.90;;;;;;5013777;28;20052;-73
2023/05/10 02:11:43;;;;;;;9.35;7.07;;;13.50;99.90;;;;;;5013558;28;20042;-74
2023/05/10 02:14:10;;;;;;;7.45;6.68;;;13.40;99.90;;;;;;4996921;28;20073;-73
2023/05/10 02:16:38;;;;;;;9.90;7.60;;;13.40;99.90;;;;;;4996107;28;20157;-74
2023/05/10 02:19:06;;;;;;;9.60;7.05;;;13.40;99.90;;;;;;5013661;28;20052;-73
2023/05/10 02:21:33;;;;;;;9.00;7.43;;;13.40;99.90;;;;;;4996411;28;20571;-74
2023/05/10 02:24:02;;;;;;;8.30;7.18;;;13.50;99.90;;;;;;5013478;28;20124;-73
2023/05/10 02:26:31;;;;;;;8.13;6.68;;;13.40;99.90;;;;;;5013842;28;20046;-73
2023/05/10 02:28:58;;;;;;;8.90;6.90;;;13.40;99.90;;;;;;5013196;28;20485;-74
2023/05/10 02:31:24;;;;;;;8.68;6.95;;;13.40;99.90;;;;;;5013304;28;20042;-73
2023/05/10 02:33:51;;;;;;;10.93;7.68;;;13.50;99.90;;;;;;5013376;28;20068;-73
2023/05/10 02:36:18;;;;;;;7.30;6.53;;;13.50;99.90;;;;;;5013379;28;20045;-74
2023/05/10 02:38:45;;;;;;;8.73;7.25;;;13.50;99.90;;;;;;4995852;28;20412;-73
2023/05/10 02:41:11;;;;;;;10.70;7.63;;;13.50;99.90;;;;;;5013623;28;20137;-73
2023/05/10 02:43:39;;;;;;;8.73;7.82;;;13.40;99.90;;;;;;5013544;28;20053;-74
2023/05/10 02:46:05;;;;;;;8.52;7.18;;;13.40;99.90;;;;;;4995790;28;20204;-72
2023/05/10 02:48:31;;;;;;;8.98;7.95;;;13.40;99.90;;;;;;5013361;28;20085;-73
2023/05/10 02:51:04;;;;;;;7.43;6.45;;;13.50;99.90;;;;;;5013025;28;20128;-74
2023/05/10 02:53:35;;;;;;;10.38;8.10;;;13.40;99.90;;;;;;5013069;28;20060;-73
2023/05/10 02:56:06;;;;;;;9.30;8.23;;;13.40;99.90;;;;;;5013558;28;20066;-74
2023/05/10 02:58:33;;;;;;;9.85;8.18;;;13.50;99.90;;;;;;5013066;28;20121;-73
2023/05/10 03:01:00;;;;;;;7.95;7.15;;;13.50;99.90;;;;;;5012670;28;20541;-73
2023/05/10 03:03:26;;;;;;;13.98;10.10;;;13.50;99.90;;;;;;5012566;28;20137;-73
2023/05/10 03:05:55;;;;;;;12.77;9.20;;;13.50;99.90;;;;;;5012723;28;20081;-74
2023/05/10 03:08:22;;;;;;;10.95;8.65;;;13.50;99.90;;;;;;5012666;28;20054;-74
2023/05/10 03:11:31;;;;;;;10.95;8.75;;;13.50;99.90;;;;;;5012299;28;20519;-73
2023/05/10 03:14:04;;;;;;;13.90;8.65;;;13.40;99.90;;;;;;4995542;28;20554;-73
2023/05/10 03:16:45;;;;;;;13.25;9.10;;;13.30;99.90;;;;;;5012796;28;20073;-73
2023/05/10 03:19:26;;;;;;;12.30;10.18;;;13.30;99.90;;;;;;4995519;28;20455;-75
2023/05/10 03:21:55;;;;;;;14.07;10.07;;;13.20;99.90;;;;;;4995875;28;20056;-74
2023/05/10 03:24:25;;;;;;;13.25;8.80;;;13.20;99.90;;;;;;5012612;28;20045;-73
2023/05/10 03:26:56;;;;;;;14.18;10.43;;;13.20;99.90;;;;;;5012714;28;20544;-73
2023/05/10 03:29:23;;;;;;;13.10;10.43;;;13.20;99.90;;;;;;5013043;28;20129;-75
2023/05/10 03:31:50;;;;;;;16.70;11.27;;;13.30;99.90;;;;;;4995981;28;20058;-73
2023/05/10 03:34:16;;;;;;;14.88;10.73;;;13.30;99.90;;;;;;4995400;28;20050;-74
2023/05/10 03:36:41;;;;;;;15.93;9.80;;;13.30;99.90;;;;;;4995246;28;20485;-73
2023/05/10 03:39:07;;;;;;;17.38;12.15;;;13.30;99.90;;;;;;5013011;28;20054;-73
2023/05/10 03:41:33;;;;;;;16.45;11.85;;;13.30;99.90;;;;;;5012808;28;20064;-73
2023/05/10 03:43:58;;;;;;;18.77;11.40;;;13.30;99.90;;;;;;4978962;28;20087;-73
2023/05/10 03:46:24;;;;;;;16.38;11.23;;;13.30;99.90;;;;;;4995483;28;20077;-73
2023/05/10 03:48:50;;;;;;;17.10;11.55;;;13.30;99.90;;;;;;5012507;28;20050;-73
2023/05/10 03:51:15;;;;;;;18.25;11.95;;;13.30;99.90;;;;;;5012427;28;20049;-73
2023/05/10 03:53:41;;;;;;;14.40;11.13;;;13.30;99.90;;;;;;5012306;28;20481;-73
2023/05/10 03:56:06;;;;;;;19.52;13.65;;;13.30;99.90;;;;;;5012839;28;20511;-74
2023/05/10 03:58:32;;;;;;;15.52;12.85;;;13.30;99.90;;;;;;5012724;28;20049;-73
2023/05/10 04:00:58;;;;;;;14.90;11.93;;;13.30;99.90;;;;;;5012287;28;20048;-74
2023/05/10 04:03:25;;;;;;;17.98;11.82;;;13.30;99.90;;;;;;5012250;28;20042;-73
2023/05/10 04:05:59;;;;;;;19.85;12.43;;;13.20;99.90;;;;;;5012238;28;20124;-73
2023/05/10 04:08:25;;;;;;;18.52;11.85;;;13.20;99.90;;;;;;5012239;28;20050;-73
2023/05/10 04:10:51;;;;;;;15.32;11.57;;;13.20;99.90;;;;;;5012384;28;20061;-73
2023/05/10 04:13:16;;;;;;;15.32;10.60;;;13.20;99.90;;;;;;4995012;28;20073;-75
2023/05/10 04:15:43;;;;;;;17.10;11.55;;;13.20;99.90;;;;;;5013204;28;20042;-74
2023/05/10 04:18:09;;;;;;;16.23;10.20;;;13.20;99.90;;;;;;5015986;28;20049;-73
2023/05/10 04:20:35;;;;;;;14.18;10.45;;;13.20;99.90;;;;;;4998295;28;20042;-73
2023/05/10 04:23:01;;;;;;;16.35;11.02;;;13.20;99.90;;;;;;5015757;28;20046;-73
2023/05/10 04:25:27;;;;;;;14.98;10.25;;;13.20;99.90;;;;;;5016388;28;20088;-75
2023/05/10 04:27:52;;;;;;;12.13;9.70;;;13.20;99.90;;;;;;4998553;28;20470;-73
2023/05/10 04:30:18;;;;;;;13.07;9.82;;;13.20;99.90;;;;;;5015527;28;20053;-73
2023/05/10 04:32:44;;;;;;;11.70;8.32;;;13.20;99.90;;;;;;4998513;28;20049;-72
2023/05/10 04:35:10;;;;;;;13.73;10.57;;;13.10;99.90;;;;;;5015528;28;20052;-73
2023/05/10 04:37:36;;;;;;;11.43;9.00;;;13.20;99.90;;;;;;5015458;28;20133;-72
2023/05/10 04:40:03;;;;;;;12.90;9.25;;;13.20;99.90;;;;;;5015730;28;20443;-74
2023/05/10 04:42:32;;;;;;;12.30;8.52;;;13.10;99.90;;;;;;5016022;28;20156;-76
2023/05/10 04:48:38;;;;;;;10.52;8.95;;;13.10;99.90;;;;;;5014932;28;20032;-74
2023/05/10 04:51:04;;;;;;;11.68;8.48;;;13.20;99.90;;;;;;4997586;28;20129;-74
2023/05/10 04:53:30;;;;;;;10.63;8.80;;;13.20;99.90;;;;;;5015003;28;20065;-74
2023/05/10 04:55:56;;;;;;;10.60;8.10;;;13.20;99.90;;;;;;5015292;28;20042;-74
2023/05/10 04:58:21;;;;;;;11.63;9.35;;;13.20;99.90;;;;;;5015188;28;20488;-75
2023/05/10 05:00:47;;;;;;;12.05;8.90;;;13.20;99.90;;;;;;5015217;28;20077;-75
2023/05/10 05:03:13;;;;;;;10.77;8.60;;;13.20;99.90;;;;;;5014851;28;20054;-74
2023/05/10 05:05:38;;;;;;;9.90;7.95;;;13.20;99.90;;;;;;4997294;28;20045;-75
2023/05/10 05:08:04;;;;;;;10.13;7.47;;;13.20;99.90;;;;;;4981710;28;20057;-74
2023/05/10 05:10:30;;;;;;;11.45;9.02;;;13.10;99.90;;;;;;5014642;28;20038;-74
2023/05/10 05:12:55;;;;;;;9.13;7.70;;;13.10;99.90;;;;;;4997201;28;20045;-75
2023/05/10 05:15:21;;;;;;;8.55;7.63;;;13.10;99.90;;;;;;5014746;28;20046;-74
2023/05/10 05:17:47;;;;;;;8.95;7.18;;;13.10;99.90;;;;;;4997057;28;20125;-74
2023/05/10 05:20:13;;;;;;;8.95;8.02;;;13.10;99.90;;;;;;5014587;28;20086;-74
2023/05/10 05:22:38;;;;;;;8.68;7.43;;;13.10;99.90;;;;;;4997092;28;20100;-74
2023/05/10 05:25:05;;;;;;;8.02;7.25;;;13.20;99.90;;;;;;4997351;28;20046;-74
2023/05/10 05:27:31;;;;;;;7.32;6.65;;;13.20;99.90;;;;;;4995674;28;20120;-73
2023/05/10 05:29:58;;;;;;;7.65;6.82;;;13.10;99.90;;;;;;4997143;28;20048;-73
2023/05/10 05:32:24;;;;;;;6.53;5.75;;;13.10;99.90;;;;;;4997016;28;20050;-74
2023/05/10 05:34:50;;;;;;;5.97;5.35;;;13.10;99.90;;;;;;4996888;28;20050;-74
2023/05/10 05:37:17;;;;;;;5.50;4.80;;;13.20;99.90;;;;;;5014270;28;20050;-75
2023/05/10 05:39:43;;;;;;;5.82;4.97;;;13.20;99.90;;;;;;5014144;28;20042;-74
2023/05/10 05:42:10;;;;;;;7.25;5.60;;;13.10;99.90;;;;;;5013638;28;20049;-74
2023/05/10 05:44:36;;;;;;;5.78;5.18;;;13.10;99.90;;;;;;5014563;28;20045;-74
2023/05/10 05:47:01;;;;;;;5.65;4.93;;;13.20;99.90;;;;;;4996640;28;20402;-74
2023/05/10 05:49:27;;;;;;;4.32;3.92;;;13.20;99.90;;;;;;4997103;28;20038;-74
2023/05/10 05:51:53;;;;;;;4.40;4.00;;;13.20;99.90;;;;;;5014007;28;20045;-74
2023/05/10 05:54:19;;;;;;;5.00;3.50;;;13.20;99.90;;;;;;5014508;28;20041;-73
2023/05/10 05:56:44;;;;;;;3.83;3.53;;;13.30;99.90;;;;;;5013909;28;20532;-74
2023/05/10 05:59:13;;;;;;;4.60;3.80;;;13.20;99.90;;;;;;5013785;28;20498;-74
2023/05/10 06:01:39;;;;;;;3.08;2.88;;;13.20;99.90;;;;;;5014353;28;20140;-74
2023/05/10 06:04:04;;;;;;;2.95;2.60;;;13.20;99.90;;;;;;5013866;28;20497;-74
2023/05/10 06:06:32;;;;;;;3.88;2.30;;;13.10;99.90;;;;;;5014058;28;20057;-74
2023/05/10 06:08:57;;;;;;;2.25;2.08;;;13.10;99.90;;;;;;5013729;28;20054;-74
2023/05/10 06:11:23;;;;;;;2.17;2.03;;;13.10;99.90;;;;;;5013597;28;20061;-74
2023/05/10 06:13:49;;;;;;;3.45;2.17;;;13.10;99.90;;;;;;4996791;28;20095;-73
2023/05/10 06:16:15;;;;;;;2.20;2.10;;;13.10;99.90;;;;;;4980312;28;20062;-74
2023/05/10 06:18:40;;;;;;;2.97;1.92;;;13.10;99.90;;;;;;5014001;28;20599;-74
2023/05/10 06:21:06;;;;;;;2.38;2.13;;;13.10;99.90;;;;;;5013569;28;20053;-75
2023/05/10 06:23:32;;;;;;;2.92;1.83;;;13.20;99.90;;;;;;4996059;28;20081;-74
2023/05/10 06:25:58;;;;;;;2.58;2.28;;;13.10;99.90;;;;;;4996338;28;20046;-75
2023/05/10 06:28:23;;;;;;;4.32;2.35;;;13.10;99.90;;;;;;4996320;28;20049;-74
2023/05/10 06:30:49;;;;;;;2.38;1.70;;;13.10;99.90;;;;;;4995886;28;20052;-75
2023/05/10 06:33:15;;;;;;;2.80;1.90;;;13.20;99.90;;;;;;5013326;28;20379;-75
2023/05/10 06:35:41;;;;;;;2.00;1.90;;;13.20;99.90;;;;;;4995853;28;20057;-75
2023/05/10 06:38:07;;;;;;;1.70;1.60;;;13.20;99.90;;;;;;5013139;28;20046;-75
2023/05/10 06:40:33;;;;;;;1.88;1.70;;;13.30;99.90;;;;;;5012826;28;20543;-75
2023/05/10 06:42:58;;;;;;;1.00;1.00;;;13.30;99.90;;;;;;5013697;28;20379;-75
2023/05/10 06:45:24;;;;;;;1.23;1.08;;;13.20;99.90;;;;;;5012977;28;20045;-75
2023/05/10 06:47:50;;;;;;;1.52;1.10;;;13.20;99.90;;;;;;4995767;28;20069;-75
2023/05/10 06:50:16;;;;;;;0.90;0.90;;;13.20;99.90;;;;;;4995930;28;20085;-75
2023/05/10 06:52:42;;;;;;;1.10;1.00;;;13.10;99.90;;;;;;5013371;28;20440;-75
2023/05/10 06:55:08;;;;;;;1.00;1.00;;;13.10;99.90;;;;;;4995492;28;20050;-75
2023/05/10 06:57:34;;;;;;;1.85;1.40;;;13.20;99.90;;;;;;5012833;28;20042;-74
2023/05/10 07:00:00;;;;;;;2.72;1.90;;;13.20;99.90;;;;;;4995695;28;20127;-75
2023/05/10 07:02:27;;;;;;;2.30;2.10;;;13.10;99.90;;;;;;5013365;28;20065;-78
2023/05/10 07:04:52;;;;;;;3.25;2.30;;;13.10;99.90;;;;;;5012830;28;20084;-78
2023/05/10 07:07:18;;;;;;;2.15;1.92;;;13.20;99.90;;;;;;5012535;28;20049;-75
2023/05/10 07:09:44;;;;;;;1.60;1.50;;;13.20;99.90;;;;;;5013286;28;20058;-74
2023/05/10 07:12:10;;;;;;;1.90;1.75;;;13.10;99.90;;;;;;5012827;28;20444;-75
2023/05/10 07:14:36;;;;;;;1.80;1.42;;;13.10;99.90;;;;;;5012899;28;20050;-79
2023/05/10 07:17:01;;;;;;;1.50;1.40;;;13.70;99.90;;;;;;4979257;28;20060;-79
2023/05/10 07:19:29;;;;;;;3.33;1.40;;;13.20;99.90;;;;;;5012973;28;20042;-79
2023/05/10 07:21:54;;;;;;;2.72;1.45;;;13.10;99.90;;;;;;5012753;28;20125;-79
2023/05/10 07:24:20;;;;;;;1.25;1.15;;;13.20;99.90;;;;;;4995024;28;20081;-75
2023/05/10 07:26:46;;;;;;;2.30;1.42;;;13.10;99.90;;;;;;5012425;28;20045;-76
2023/05/10 07:29:12;;;;;;;1.08;0.95;;;13.20;99.90;;;;;;5012507;28;20092;-75
2023/05/10 07:31:38;;;;;;;0.98;0.90;;;13.20;99.90;;;;;;5012971;28;20132;-74
2023/05/10 07:34:03;;;;;;;1.02;1.00;;;13.20;99.90;;;;;;4979655;28;20046;-74
2023/05/10 07:36:29;;;;;;;1.25;1.00;;;13.30;99.90;;;;;;5012658;28;20050;-75
2023/05/10 07:38:56;;;;;;;1.20;1.10;;;13.30;99.90;;;;;;5012611;28;20411;-74
2023/05/10 07:41:22;;;;;;;2.67;1.30;;;13.40;99.90;;;;;;5012484;28;20066;-74
2023/05/10 07:43:48;;;;;;;1.10;1.05;;;13.50;99.90;;;;;;5012250;28;20046;-75
2023/05/10 07:46:13;;;;;;;1.30;1.20;;;13.60;99.90;;;;;;5012364;28;20069;-74
2023/05/10 07:48:39;;;;;;;2.25;1.05;;;13.70;99.90;;;;;;5012378;28;20041;-74
2023/05/10 07:51:06;;;;;;;1.10;1.10;;;13.80;99.90;;;;;;5013814;28;20493;-74
2023/05/10 07:53:32;;;;;;;1.33;1.23;;;14.00;99.90;;;;;;5015958;28;20050;-76
2023/05/10 07:55:58;;;;;;;1.10;1.02;;;14.00;99.90;;;;;;5015834;28;20126;-75
2023/05/10 07:58:25;;;;;;;1.42;1.27;;;14.00;99.90;;;;;;5015939;28;20072;-75
2023/05/10 08:00:51;;;;;;;1.15;1.05;;;13.80;99.90;;;;;;5016054;28;20042;-74
2023/05/10 08:03:16;;;;;;;1.33;1.23;;;13.80;99.90;;;;;;4998557;28;20042;-74
2023/05/10 08:05:42;;;;;;;2.08;1.25;;;13.80;99.90;;;;;;4998967;28;20414;-75
2023/05/10 08:08:08;;;;;;;1.58;1.48;;;13.80;99.90;;;;;;5016422;28;20050;-74
2023/05/10 08:10:33;;;;;;;2.10;1.90;;;13.70;99.90;;;;;;4998483;28;20049;-75
2023/05/10 08:12:59;;;;;;;2.10;1.95;;;13.70;99.90;;;;;;5016000;28;20050;-74
2023/05/10 08:15:25;;;;;;;2.42;2.25;;;13.70;99.90;;;;;;5016044;28;20058;-73
2023/05/10 08:17:54;;;;;;;2.97;2.38;;;13.70;99.90;;;;;;5016165;28;20054;-74
2023/05/10 08:20:20;;;;;;;3.90;2.60;;;13.70;99.90;;;;;;4982354;28;20065;-74
2023/05/10 08:22:46;;;;;;;3.15;2.88;;;13.60;99.90;;;;;;4998157;28;20050;-74
2023/05/10 08:25:12;;;;;;;2.72;2.53;;;13.60;99.90;;;;;;5016071;28;20080;-74
2023/05/10 08:27:37;;;;;;;3.53;3.22;;;13.70;99.90;;;;;;5016081;28;20042;-74
2023/05/10 08:30:04;;;;;;;3.05;2.85;;;13.70;99.90;;;;;;4998133;28;20089;-74
2023/05/10 08:32:29;;;;;;;3.55;2.97;;;13.70;99.90;;;;;;5016153;28;20069;-74
2023/05/10 08:34:56;;;;;;;3.03;2.83;;;13.70;99.90;;;;;;5015406;28;20046;-73
2023/05/10 08:37:23;;;;;;;4.32;3.45;;;13.60;99.90;;;;;;5015496;28;20168;-74
2023/05/10 08:39:48;;;;;;;4.13;3.42;;;13.60;99.90;;;;;;5015251;28;20452;-73
2023/05/10 08:42:18;;;;;;;3.95;3.58;;;13.60;99.90;;;;;;5015087;28;20066;-74
2023/05/10 08:44:47;;;;;;;3.67;3.30;;;13.70;99.90;;;;;;5015241;28;20046;-74
2023/05/10 08:47:15;;;;;;;3.97;3.53;;;14.00;99.90;;;;;;5015180;28;20050;-75
2023/05/10 08:49:43;;;;;;;3.40;3.10;;;13.70;99.90;;;;;;5015543;28;20169;-73
2023/05/10 08:52:11;;;;;;;4.25;3.30;;;13.70;99.90;;;;;;4998028;28;20084;-74
2023/05/10 08:54:38;;;;;;;5.30;3.65;;;13.70;99.90;;;;;;5015190;28;20050;-74
2023/05/10 08:57:04;;;;;;;3.70;3.08;;;13.70;99.90;;;;;;5015499;28;20050;-73
2023/05/10 08:59:30;;;;;;;4.97;3.53;;;13.70;99.90;;;;;;5015709;28;20073;-74
2023/05/10 09:01:59;;;;;;;3.70;3.40;;;13.70;99.90;;;;;;5014688;28;20044;-73
2023/05/10 09:04:25;;;;;;;4.50;3.30;;;13.80;99.90;;;;;;5014952;28;20054;-73
2023/05/10 09:06:51;;;;;;;3.70;3.30;;;13.80;99.90;;;;;;5015442;28;20068;-73
2023/05/10 09:09:18;;;;;;;3.83;3.42;;;13.80;99.90;;;;;;5014862;28;20457;-74
2023/05/10 09:11:44;;;;;;;4.05;3.40;;;13.90;99.90;;;;;;4996945;28;20046;-73
2023/05/10 09:14:12;;;;;;;5.43;3.50;;;13.90;99.90;;;;;;5014945;28;20053;-73
2023/05/10 09:16:38;;;;;;;5.05;4.25;;;14.00;99.90;;;;;;5014702;28;20053;-74
2023/05/10 09:19:04;;;;;;;4.95;3.90;;;14.00;99.90;;;;;;5015246;28;20125;-74
2023/05/10 09:21:30;;;;;;;3.95;3.58;;;14.00;99.90;;;;;;5015021;28;20139;-73
2023/05/10 09:23:56;;;;;;;5.95;3.53;;;14.10;99.90;;;;;;5014629;28;20053;-73
2023/05/10 09:26:23;;;;;;;4.82;4.20;;;14.10;99.90;;;;;;5014530;28;20045;-74
2023/05/10 09:29:02;;;;;;;6.93;3.72;;;14.20;99.90;;;;;;5014885;28;20038;-74
2023/05/10 09:31:50;;;;;;;4.72;4.32;;;14.20;99.90;;;;;;5014497;28;20089;-74
2023/05/10 09:34:18;;;;;;;5.15;3.42;;;14.20;99.90;;;;;;5014394;28;20126;-73
2023/05/10 09:37:00;;;;;;;4.07;3.65;;;14.20;99.90;;;;;;5014917;28;20077;-73
2023/05/10 09:39:33;;;;;;;4.43;3.95;;;14.20;99.90;;;;;;4997382;28;20057;-73
2023/05/10 09:42:05;;;;;;;4.72;3.85;;;14.30;99.90;;;;;;4996678;28;20053;-74
2023/05/10 09:44:32;;;;;;;4.18;3.78;;;14.30;99.90;;;;;;4997080;28;20132;-74
2023/05/10 09:46:59;;;;;;;6.15;3.50;;;14.30;99.90;;;;;;4997111;28;20056;-74
2023/05/10 09:49:25;;;;;;;4.97;3.88;;;14.40;99.90;;;;;;5014134;28;20104;-74
2023/05/10 09:52:07;;;;;;;5.20;4.00;;;14.40;99.90;;;;;;5014114;28;20045;-74
2023/05/10 09:54:33;;;;;;;5.45;4.00;;;14.30;99.90;;;;;;5014088;28;20576;-74
2023/05/10 09:57:00;;;;;;;5.85;3.83;;;14.30;99.90;;;;;;5014577;28;20042;-73
2023/05/10 09:59:27;;;;;;;5.53;4.15;;;14.30;99.90;;;;;;5013940;28;20514;-73
2023/05/10 10:01:56;;;;;;;6.25;4.13;;;14.30;99.90;;;;;;5013891;28;20046;-74
2023/05/10 10:04:22;;;;;;;4.95;4.43;;;14.40;99.90;;;;;;4996561;28;20046;-74
2023/05/10 10:06:59;;;;;;;6.53;4.18;;;14.60;99.90;;;;;;5014091;28;20053;-73
2023/05/10 10:09:25;;;;;;;5.65;4.50;;;14.90;99.90;;;;;;5014180;28;20050;-73
2023/05/10 10:11:51;;;;;;;5.22;4.45;;;15.10;99.90;;;;;;5013687;28;20250;-73
2023/05/10 10:14:18;;;;;;;6.07;4.30;;;15.40;99.90;;;;;;5012971;28;20385;-73
2023/05/10 10:16:45;;;;;;;4.60;4.18;;;15.50;99.90;;;;;;5013521;28;20046;-74
2023/05/10 10:19:10;;;;;;;5.50;4.47;;;15.50;99.90;;;;;;5013504;28;20050;-73
2023/05/10 10:21:36;;;;;;;5.13;4.40;;;15.40;99.90;;;;;;5013563;28;20088;-74
2023/05/10 10:24:05;;;;;;;6.90;4.60;;;15.40;99.90;;;;;;5013467;28;20048;-73
2023/05/10 10:26:32;;;;;;;5.05;4.55;;;15.40;99.90;;;;;;5013428;28;20056;-73
2023/05/10 10:29:15;;;;;;;7.38;4.30;;;15.50;99.90;;;;;;5013754;28;20050;-74
2023/05/10 10:31:52;;;;;;;5.65;4.90;;;15.50;99.90;;;;;;5013399;28;20046;-73
2023/05/10 10:34:36;;;;;;;5.90;4.70;;;15.50;99.90;;;;;;5013566;28;20042;-73
2023/05/10 10:37:06;;;;;;;5.68;4.20;;;15.40;99.90;;;;;;5014094;28;20061;-73
2023/05/10 10:39:32;;;;;;;7.20;5.32;;;15.40;99.90;;;;;;4996088;28;20112;-73
2023/05/10 10:41:59;;;;;;;7.22;4.75;;;15.40;99.90;;;;;;5013165;28;20090;-73
2023/05/10 10:44:31;;;;;;;9.18;4.85;;;15.50;99.90;;;;;;5013060;28;20099;-73
2023/05/10 10:47:08;;;;;;;5.97;4.60;;;15.60;99.90;;;;;;5013203;28;20061;-74
2023/05/10 10:49:43;;;;;;;4.97;4.38;;;15.70;99.90;;;;;;5013065;28;20057;-73
2023/05/10 10:52:23;;;;;;;7.47;4.60;;;16.00;99.90;;;;;;5013392;28;20053;-74
2023/05/10 10:54:52;;;;;;;4.75;4.35;;;16.10;99.90;;;;;;5013080;28;20095;-73
2023/05/10 10:57:21;;;;;;;7.65;4.63;;;16.20;99.90;;;;;;5012731;28;20133;-73
2023/05/10 10:59:47;;;;;;;8.20;5.07;;;16.10;99.90;;;;;;5013114;28;20533;-74
2023/05/10 11:02:33;;;;;;;5.88;4.75;;;16.00;99.90;;;;;;4995290;28;20056;-73
2023/05/10 11:04:59;;;;;;;6.50;4.50;;;15.80;99.90;;;;;;5012963;28;20050;-73
2023/05/10 11:07:24;;;;;;;8.82;5.32;;;15.70;99.90;;;;;;5013062;28;20050;-73
2023/05/10 11:09:51;;;;;;;4.95;4.22;;;15.60;99.90;;;;;;5013213;28;20498;-73
2023/05/10 11:12:17;;;;;;;6.93;5.00;;;15.50;99.90;;;;;;5013066;28;20062;-73
2023/05/10 11:14:42;;;;;;;6.07;4.15;;;15.40;99.90;;;;;;5012722;28;20504;-72
2023/05/10 11:17:26;;;;;;;7.78;4.40;;;15.40;99.90;;;;;;5012912;28;20053;-73
2023/05/10 11:20:13;;;;;;;9.80;4.55;;;15.30;99.90;;;;;;5012660;28;20050;-73
2023/05/10 11:22:54;;;;;;;7.03;4.32;;;15.40;99.90;;;;;;5012865;28;20042;-73
2023/05/10 11:25:26;;;;;;;4.90;3.88;;;15.40;99.90;;;;;;5014912;28;20058;-73
2023/05/10 11:27:52;;;;;;;5.82;4.43;;;15.50;99.90;;;;;;5016809;28;20434;-73
2023/05/10 11:30:18;;;;;;;6.03;3.55;;;15.60;99.90;;;;;;5017058;28;20039;-73
2023/05/10 11:32:44;;;;;;;6.70;3.95;;;15.60;99.90;;;;;;4999440;28;20049;-73
2023/05/10 11:35:11;;;;;;;8.95;4.60;;;15.70;99.90;;;;;;5017286;28;20426;-73
2023/05/10 11:37:41;;;;;;;4.97;4.28;;;15.70;99.90;;;;;;5016753;28;20061;-73
2023/05/10 11:40:10;;;;;;;5.60;4.32;;;15.60;99.90;;;;;;5016892;28;20096;-73
2023/05/10 11:42:39;;;;;;;5.60;4.18;;;15.60;99.90;;;;;;4999133;28;20478;-73
2023/05/10 11:45:05;;;;;;;5.93;4.55;;;15.60;99.90;;;;;;5016462;28;20042;-73
2023/05/10 11:47:31;;;;;;;4.85;4.05;;;15.50;99.90;;;;;;4998554;28;20100;-73
2023/05/10 11:49:57;;;;;;;6.00;4.47;;;15.50;99.90;;;;;;5016990;28;20049;-73
2023/05/10 11:52:23;;;;;;;6.43;3.90;;;15.50;99.90;;;;;;4998789;28;20483;-73
2023/05/10 11:54:54;;;;;;;6.13;4.82;;;15.40;99.90;;;;;;5016216;28;20049;-73
2023/05/10 11:57:21;;;;;;;6.88;4.20;;;15.40;99.90;;;;;;4998896;28;20133;-73
2023/05/10 11:59:47;;;;;;;5.82;4.60;;;15.40;99.90;;;;;;4998866;28;20057;-73
2023/05/10 12:02:13;;;;;;;6.28;4.30;;;15.40;99.90;;;;;;5016269;28;20046;-73
2023/05/10 12:04:40;;;;;;;6.40;4.32;;;15.40;99.90;;;;;;5016360;28;20050;-74
2023/05/10 12:07:05;;;;;;;5.32;4.25;;;15.40;99.90;;;;;;5016573;28;20053;-74
2023/05/10 12:09:31;;;;;;;7.28;4.95;;;15.40;99.90;;;;;;4999496;28;20053;-74
2023/05/10 12:11:57;;;;;;;4.72;3.90;;;15.50;99.90;;;;;;5015932;28;20522;-73
2023/05/10 12:14:24;;;;;;;5.63;4.55;;;15.60;99.90;;;;;;5015991;28;20104;-74
2023/05/10 12:16:50;;;;;;;7.00;4.53;;;15.70;99.90;;;;;;5016247;28;20187;-73
2023/05/10 12:19:20;;;;;;;8.48;5.25;;;15.80;99.90;;;;;;5015817;28;20046;-74
2023/05/10 12:21:46;;;;;;;9.15;5.15;;;15.90;99.90;;;;;;5015696;28;20371;-73
2023/05/10 12:24:13;;;;;;;7.20;4.82;;;16.00;99.90;;;;;;5015686;28;20391;-74
2023/05/10 12:26:39;;;;;;;7.80;5.10;;;16.00;99.90;;;;;;5015585;28;20501;-73
2023/05/10 12:29:18;;;;;;;6.47;4.45;;;16.00;99.90;;;;;;4998115;28;20100;-74
2023/05/10 12:31:55;;;;;;;5.95;4.55;;;15.90;99.90;;;;;;5015564;28;20125;-74
2023/05/10 12:34:35;;;;;;;7.78;5.57;;;15.90;99.90;;;;;;5015536;28;20045;-73
2023/05/10 12:37:02;;;;;;;7.20;4.97;;;15.90;99.90;;;;;;5014807;28;20194;-74
2023/05/10 12:39:40;;;;;;;7.43;4.78;;;15.80;99.90;;;;;;5015376;28;20095;-74
2023/05/10 12:42:08;;;;;;;7.30;5.07;;;15.80;99.90;;;;;;5016000;28;20537;-74
2023/05/10 12:44:33;;;;;;;6.47;5.07;;;15.80;99.90;;;;;;5015230;28;20045;-74
2023/05/10 12:46:59;;;;;;;6.85;5.30;;;15.90;99.90;;;;;;5015749;28;20056;-73
2023/05/10 12:49:25;;;;;;;10.70;6.05;;;15.90;99.90;;;;;;5015189;28;20050;-72
2023/05/10 12:51:50;;;;;;;6.00;4.90;;;16.00;99.90;;;;;;5015160;28;20050;-73